Time;durP1;ratioP1;P1;durP2;ratioP2;P2;SDS_P1;SDS_P2;PMS_P1;PMS_P2;Temp;Humidity;BMP_temperature;BMP_pressure;BME280_temperature;BME280_humidity;BME280_pressure;Samples;Min_cycle;Max_cycle;Signal;HPM_P1;HPM_P2
2022/08/24 00:01:40;;;;;;;;;8.50;6.50;;;;;25.89;43.59;101140.28;5059149;28;46090;-54
2022/08/24 00:04:05;;;;;;;;;7.75;6.00;;;;;25.85;43.25;101136.94;5059916;28;45346;-53
2022/08/24 00:06:32;;;;;;;;;9.00;8.50;;;;;25.83;43.95;101138.88;5074376;28;45348;-53
2022/08/24 00:08:59;;;;;;;;;7.75;7.75;;;;;25.82;43.54;101139.84;5058353;28;45446;-52
2022/08/24 00:11:25;;;;;;;;;11.75;6.50;;;;;25.79;43.71;101140.91;5061886;28;46461;-54
2022/08/24 00:13:51;;;;;;;;;8.75;7.00;;;;;25.78;43.33;101141.03;5059416;28;45338;-52
2022/08/24 00:16:17;;;;;;;;;8.00;6.50;;;;;25.76;43.26;101142.97;5059153;28;45283;-51
2022/08/24 00:18:43;;;;;;;;;6.75;6.75;;;;;25.73;43.68;101143.19;5064909;28;45203;-50
2022/08/24 00:21:08;;;;;;;;;7.00;5.50;;;;;25.72;43.63;101142.34;5059678;28;47110;-53
2022/08/24 00:23:35;;;;;;;;;7.25;6.00;;;;;25.69;44.10;101141.72;5067286;28;45268;-52
2022/08/24 00:26:00;;;;;;;;;8.25;7.00;;;;;25.64;43.42;101140.19;5060485;28;45437;-53
2022/08/24 00:28:26;;;;;;;;;7.25;6.50;;;;;25.65;43.92;101146.44;5057801;28;45891;-53
2022/08/24 00:30:51;;;;;;;;;7.25;7.00;;;;;25.62;43.98;101142.16;5060887;28;46421;-53
2022/08/24 00:33:17;;;;;;;;;5.25;5.25;;;;;25.59;43.83;101138.81;5062563;28;45383;-51
2022/08/24 00:35:42;;;;;;;;;7.00;7.00;;;;;25.57;43.91;101144.31;5062777;28;45338;-53
2022/08/24 00:38:07;;;;;;;;;6.00;5.25;;;;;25.57;43.63;101140.75;5062851;28;45348;-52
2022/08/24 00:40:36;;;;;;;;;5.25;4.00;;;;;25.55;43.37;101140.84;5069260;28;46398;-53
2022/08/24 00:43:05;;;;;;;;;7.50;5.75;;;;;25.53;44.17;101142.78;5062843;28;45336;-52
2022/08/24 00:45:36;;;;;;;;;5.00;5.00;;;;;25.52;44.02;101142.91;5062541;28;45329;-53
2022/08/24 00:48:06;;;;;;;;;4.50;4.50;;;;;25.48;44.03;101134.19;5062102;28;45411;-53
2022/08/24 00:50:38;;;;;;;;;5.00;5.00;;;;;25.49;44.05;101137.75;5081061;28;47279;-54
2022/08/24 00:53:13;;;;;;;;;5.25;5.25;;;;;25.45;43.65;101135.28;5082626;28;45343;-53
2022/08/24 00:55:46;;;;;;;;;8.50;6.50;;;;;25.45;43.72;101143.34;5082837;28;45504;-53
2022/08/24 00:58:16;;;;;;;;;7.00;5.25;;;;;25.44;43.87;101138.06;5082630;28;45326;-53
2022/08/24 01:00:47;;;;;;;;;5.50;4.00;;;;;25.42;43.73;101131.94;5080927;28;48309;-53
2022/08/24 01:03:12;;;;;;;;;6.00;5.00;;;;;25.40;43.52;101136.59;5080959;28;45268;-52
2022/08/24 01:05:39;;;;;;;;;6.00;4.75;;;;;25.39;43.57;101135.69;5082707;28;45501;-52
2022/08/24 01:08:07;;;;;;;;;6.25;6.00;;;;;25.38;44.25;101135.81;5082402;28;45426;-53
2022/08/24 01:10:39;;;;;;;;;4.25;4.00;;;;;25.36;43.95;101137.72;5082231;28;46200;-53
2022/08/24 01:13:07;;;;;;;;;4.25;4.00;;;;;25.34;44.20;101135.13;5082244;28;45300;-53
2022/08/24 01:15:37;;;;;;;;;6.00;4.50;;;;;25.31;43.87;101130.84;5082502;27;45323;-54
2022/08/24 01:21:13;;;;;;;;;6.00;5.00;;;;;25.28;44.15;101135.56;5082074;28;45686;-54
2022/08/24 01:23:43;;;;;;;;;5.00;5.00;;;;;25.26;43.42;101134.84;5082192;28;45262;-52
2022/08/24 01:26:12;;;;;;;;;6.00;6.00;;;;;25.24;43.95;101128.69;5082142;27;45335;-54
2022/08/24 01:28:41;;;;;;;;;5.00;4.50;;;;;25.20;44.09;101127.19;5081991;28;45357;-52
2022/08/24 01:31:07;;;;;;;;;4.00;3.50;;;;;25.20;44.05;101132.56;5081750;28;46112;-52
2022/08/24 01:33:33;;;;;;;;;5.75;4.75;;;;;25.15;44.17;101131.03;5081987;28;45305;-53
2022/08/24 01:36:28;;;;;;;;;4.50;4.50;;;;;25.15;44.44;101136.41;5082419;28;45262;-51
2022/08/24 01:38:56;;;;;;;;;4.50;4.50;;;;;25.12;44.44;101131.28;5080335;28;45856;-53
2022/08/24 01:41:21;;;;;;;;;6.50;5.75;;;;;25.08;44.10;101137.84;5069116;28;45264;-54
2022/08/24 01:43:46;;;;;;;;;4.25;4.25;;;;;25.09;44.63;101138.69;5061380;28;45308;-54
2022/08/24 01:46:12;;;;;;;;;5.00;5.00;;;;;25.06;44.83;101144.28;5061455;28;45476;-54
2022/08/24 01:48:37;;;;;;;;;4.00;4.00;;;;;25.04;44.81;101144.38;5061459;28;45448;-52
2022/08/24 01:51:03;;;;;;;;;4.25;4.25;;;;;25.03;44.34;101149.88;5061446;28;46087;-53
2022/08/24 01:53:28;;;;;;;;;4.50;4.00;;;;;24.98;44.44;101145.66;5061458;28;45352;-53
2022/08/24 01:55:53;;;;;;;;;4.25;4.25;;;;;24.99;44.69;101151.91;5067894;28;45328;-53
2022/08/24 01:58:19;;;;;;;;;5.00;4.50;;;;;24.97;44.89;101145.78;5061280;28;45619;-52
2022/08/24 02:00:44;;;;;;;;;5.25;5.00;;;;;24.95;44.95;101143.19;5067082;28;48361;-53
2022/08/24 02:03:10;;;;;;;;;4.25;4.25;;;;;24.94;44.43;101145.97;5060896;28;45277;-52
2022/08/24 02:05:36;;;;;;;;;5.00;5.00;;;;;24.92;44.61;101143.41;5061576;28;45293;-52
2022/08/24 02:08:02;;;;;;;;;4.00;4.00;;;;;24.90;44.89;101145.31;5061050;28;45239;-53
2022/08/24 02:10:28;;;;;;;;;4.50;4.25;;;;;24.90;45.03;101142.63;5061197;28;45327;-54
2022/08/24 02:12:59;;;;;;;;;5.75;5.75;;;;;24.85;44.95;101133.19;5061013;28;45258;-52
2022/08/24 02:15:31;;;;;;;;;4.25;4.25;;;;;24.86;44.94;101142.97;5061442;28;45200;-53
2022/08/24 02:17:58;;;;;;;;;6.00;4.00;;;;;24.85;44.90;101143.94;5066443;28;45649;-53
2022/08/24 02:20:24;;;;;;;;;4.50;4.25;;;;;24.83;44.87;101135.97;5081259;28;46151;-53
2022/08/24 02:22:50;;;;;;;;;4.50;4.00;;;;;24.80;45.18;101138.84;5081012;28;45319;-53
2022/08/24 02:25:16;;;;;;;;;4.00;3.25;;;;;24.79;45.33;101129.94;5081509;28;45178;-53
2022/08/24 02:27:42;;;;;;;;;5.25;4.00;;;;;24.77;45.28;101139.09;5080989;28;45255;-52
2022/08/24 02:30:08;;;;;;;;;5.75;4.00;;;;;24.77;45.01;101133.72;5081129;28;46117;-52
2022/08/24 02:32:33;;;;;;;;;3.00;3.00;;;;;24.75;45.30;101131.09;5080662;27;45231;-52
2022/08/24 02:34:58;;;;;;;;;7.75;4.00;;;;;24.74;45.25;101128.53;5081153;28;45302;-53
2022/08/24 02:37:24;;;;;;;;;4.25;4.00;;;;;24.73;45.35;101129.50;5081010;28;45224;-53
2022/08/24 02:39:51;;;;;;;;;5.00;5.00;;;;;24.71;45.11;101132.28;5080969;28;45413;-54
2022/08/24 02:42:16;;;;;;;;;4.50;3.50;;;;;24.68;45.60;101127.13;5061673;27;45414;-53
2022/08/24 02:44:42;;;;;;;;;5.00;4.50;;;;;24.65;45.69;101130.00;5060740;28;45506;-53
2022/08/24 02:47:08;;;;;;;;;3.75;3.75;;;;;24.67;45.46;101130.78;5060227;28;45293;-53
2022/08/24 02:49:33;;;;;;;;;4.00;4.00;;;;;24.64;45.61;101125.56;5060592;28;47010;-53
2022/08/24 02:51:59;;;;;;;;;4.25;4.25;;;;;24.56;45.62;101118.03;5060393;28;45412;-53
2022/08/24 02:54:24;;;;;;;;;4.25;4.25;;;;;24.62;45.52;101131.06;5060685;28;45521;-52
2022/08/24 02:56:50;;;;;;;;;2.00;2.00;;;;;24.61;45.23;101132.00;5060428;28;46580;-52
2022/08/24 02:59:17;;;;;;;;;6.00;5.00;;;;;24.60;45.71;101129.44;5071056;28;46124;-53
2022/08/24 03:01:43;;;;;;;;;4.00;4.00;;;;;24.57;45.38;101125.13;5061340;28;45198;-51
2022/08/24 03:04:09;;;;;;;;;5.50;5.50;;;;;24.57;45.80;101121.59;5060555;28;45244;-51
2022/08/24 03:06:35;;;;;;;;;4.50;4.50;;;;;24.57;45.71;101133.19;5074073;28;45514;-54
2022/08/24 03:09:01;;;;;;;;;4.00;4.00;;;;;24.55;45.51;101135.09;5060142;28;45440;-53
2022/08/24 03:11:26;;;;;;;;;4.00;4.00;;;;;24.54;45.83;101129.84;5060219;28;45256;-53
2022/08/24 03:13:52;;;;;;;;;4.25;4.25;;;;;24.51;45.82;101130.91;5060342;28;45424;-52
2022/08/24 03:16:17;;;;;;;;;4.00;3.00;;;;;24.49;45.84;101125.66;5059838;28;45663;-53
2022/08/24 03:18:42;;;;;;;;;5.50;4.75;;;;;24.49;45.50;101131.03;5071110;28;46902;-53
2022/08/24 03:21:09;;;;;;;;;4.00;4.00;;;;;24.47;46.19;101130.25;5060155;28;45431;-53
2022/08/24 03:23:34;;;;;;;;;3.00;3.00;;;;;24.46;46.00;101130.34;5072588;28;45259;-52
2022/08/24 03:26:00;;;;;;;;;4.00;3.75;;;;;24.45;45.94;101125.94;5080262;28;45240;-54
2022/08/24 03:28:26;;;;;;;;;5.25;5.25;;;;;24.44;46.01;101126.91;5080256;28;46267;-52
2022/08/24 03:30:52;;;;;;;;;4.00;3.50;;;;;24.42;45.88;101131.53;5080224;28;45704;-54
2022/08/24 03:33:18;;;;;;;;;2.00;2.00;;;;;24.41;45.96;101127.13;5080211;28;45422;-54
2022/08/24 03:35:44;;;;;;;;;3.50;3.50;;;;;24.38;45.97;101130.00;5080224;28;45600;-53
2022/08/24 03:38:11;;;;;;;;;7.00;5.00;;;;;24.38;46.18;101132.69;5078821;28;48656;-53
2022/08/24 03:40:36;;;;;;;;;5.00;5.00;;;;;24.37;46.30;101136.34;5074062;28;45334;-54
2022/08/24 03:43:02;;;;;;;;;3.00;3.00;;;;;24.35;46.07;101133.75;5059983;28;45393;-53
2022/08/24 03:45:28;;;;;;;;;6.25;3.25;;;;;24.34;46.03;101132.91;5059759;28;45351;-54
2022/08/24 03:47:54;;;;;;;;;4.00;4.00;;;;;24.33;46.03;101133.84;5059399;28;45395;-53
2022/08/24 03:50:20;;;;;;;;;5.00;5.00;;;;;24.33;45.89;101130.31;5059476;28;45263;-51
2022/08/24 03:52:46;;;;;;;;;3.75;3.75;;;;;24.30;46.27;101130.50;5060010;28;45284;-53
2022/08/24 03:55:12;;;;;;;;;3.00;3.00;;;;;24.30;46.17;101127.81;5059522;28;45202;-54
2022/08/24 03:57:38;;;;;;;;;3.75;3.75;;;;;24.27;46.07;101125.34;5059679;28;46309;-53
2022/08/24 04:00:07;;;;;;;;;5.00;5.00;;;;;24.25;46.16;101125.47;5059324;28;45336;-53
2022/08/24 04:02:32;;;;;;;;;3.25;3.25;;;;;24.23;46.28;101113.97;5058103;28;45261;-51
2022/08/24 04:04:58;;;;;;;;;4.75;4.50;;;;;24.20;46.54;101116.84;5058922;28;45862;-52
2022/08/24 04:07:23;;;;;;;;;5.25;5.25;;;;;24.20;46.60;101119.53;5063101;28;46345;-53
2022/08/24 04:09:49;;;;;;;;;5.00;5.00;;;;;24.18;46.54;101113.41;5063066;28;45473;-53
2022/08/24 04:12:14;;;;;;;;;5.00;5.00;;;;;24.16;46.28;101118.00;5063154;28;45725;-53
2022/08/24 04:14:40;;;;;;;;;4.00;4.00;;;;;24.14;46.44;101123.47;5063152;28;45182;-53
2022/08/24 04:17:05;;;;;;;;;4.50;4.00;;;;;24.14;46.64;101126.16;5062624;28;45340;-52
2022/08/24 04:19:32;;;;;;;;;5.00;5.00;;;;;24.12;46.48;101124.53;5081839;28;45222;-54
2022/08/24 04:21:57;;;;;;;;;4.50;4.50;;;;;24.09;46.74;101120.22;5083427;28;45520;-53
2022/08/24 04:24:24;;;;;;;;;5.00;4.00;;;;;24.09;46.69;101128.28;5081798;28;45384;-53
2022/08/24 04:26:49;;;;;;;;;5.00;5.00;;;;;24.08;46.71;101125.72;5083111;28;46245;-50
2022/08/24 04:29:18;;;;;;;;;3.00;3.00;;;;;24.07;46.77;101126.66;5082882;28;45271;-53
2022/08/24 04:31:44;;;;;;;;;4.75;2.25;;;;;24.06;46.61;101133.84;5082955;27;45336;-53
2022/08/24 04:34:10;;;;;;;;;5.25;5.25;;;;;24.05;46.94;101128.56;5081548;28;45435;-53
2022/08/24 04:36:35;;;;;;;;;5.25;3.75;;;;;24.02;46.72;101125.16;5082898;28;46304;-53
2022/08/24 04:39:02;;;;;;;;;5.00;4.00;;;;;24.02;46.92;101125.16;5082815;28;45192;-53
2022/08/24 04:41:27;;;;;;;;;6.50;4.00;;;;;23.99;46.93;101119.97;5070707;28;45415;-52
2022/08/24 04:43:53;;;;;;;;;5.00;3.75;;;;;23.99;46.81;101124.50;5062575;28;45179;-50
2022/08/24 04:46:19;;;;;;;;;5.50;4.00;;;;;23.97;46.83;101134.44;5062141;28;46038;-52
2022/08/24 04:48:46;;;;;;;;;6.75;5.00;;;;;23.93;47.10;101123.03;5062377;28;45344;-52
2022/08/24 04:51:14;;;;;;;;;4.25;4.25;;;;;23.93;46.88;101128.41;5061339;28;45339;-53
2022/08/24 04:53:40;;;;;;;;;5.50;3.75;;;;;23.92;47.09;101128.53;5061064;28;45408;-54
2022/08/24 04:56:15;;;;;;;;;5.00;4.25;;;;;23.90;47.17;101123.22;5060977;28;48286;-52
2022/08/24 04:58:41;;;;;;;;;5.00;5.00;;;;;23.89;47.14;101129.53;5062100;28;45257;-53
2022/08/24 05:01:14;;;;;;;;;5.25;5.00;;;;;23.88;47.29;101116.22;5062058;28;45228;-53
2022/08/24 05:03:40;;;;;;;;;6.00;4.00;;;;;23.86;47.11;101116.31;5062352;28;45320;-53
2022/08/24 05:06:05;;;;;;;;;4.00;4.00;;;;;23.86;47.10;101125.25;5061677;28;47247;-53
2022/08/24 05:08:31;;;;;;;;;5.00;4.75;;;;;23.85;47.09;101119.97;5062213;28;45434;-53
2022/08/24 05:10:56;;;;;;;;;7.00;6.25;;;;;23.84;47.46;101120.94;5061800;28;45437;-53
2022/08/24 05:13:21;;;;;;;;;4.25;3.25;;;;;23.82;47.40;101120.16;5062096;28;45311;-60
2022/08/24 05:15:47;;;;;;;;;5.00;5.00;;;;;23.79;47.83;101120.38;5061063;28;47564;-61
2022/08/24 05:18:14;;;;;;;;;6.75;5.00;;;;;23.79;47.37;101125.75;5068881;28;45312;-60
2022/08/24 05:20:45;;;;;;;;;3.75;3.75;;;;;23.76;47.34;101126.78;5082117;28;45368;-61
2022/08/24 05:23:12;;;;;;;;;5.25;5.25;;;;;23.78;47.20;101134.75;5082372;28;45387;-60
2022/08/24 05:25:38;;;;;;;;;5.00;4.25;;;;;23.76;47.52;101136.66;5081797;28;46068;-61
2022/08/24 05:28:04;;;;;;;;;6.00;6.00;;;;;23.70;47.53;101127.19;5082338;28;45281;-60
2022/08/24 05:30:30;;;;;;;;;5.00;5.00;;;;;23.74;47.40;101133.22;5081927;28;45358;-61
2022/08/24 05:32:55;;;;;;;;;7.00;7.00;;;;;23.71;47.30;101136.97;5081792;28;45295;-61
2022/08/24 05:35:20;;;;;;;;;4.00;4.00;;;;;23.72;47.62;101133.28;5082016;28;45387;-61
2022/08/24 05:37:46;;;;;;;;;8.25;5.75;;;;;23.72;47.54;101138.66;5080800;28;45427;-61
2022/08/24 05:40:13;;;;;;;;;7.00;7.00;;;;;23.70;47.66;101136.09;5080180;28;45355;-61
2022/08/24 05:42:39;;;;;;;;;3.00;3.00;;;;;23.67;47.82;101132.72;5061913;28;45323;-61
2022/08/24 05:45:05;;;;;;;;;8.25;8.00;;;;;23.67;47.93;101136.28;5061387;28;45939;-62
2022/08/24 05:47:33;;;;;;;;;5.25;5.25;;;;;23.69;47.71;101138.88;5061211;28;45365;-61
2022/08/24 05:49:59;;;;;;;;;4.25;4.25;;;;;23.67;47.64;101136.28;5061499;28;45332;-61
2022/08/24 05:52:25;;;;;;;;;4.75;4.75;;;;;23.67;47.90;101138.09;5061533;28;45182;-59
2022/08/24 05:54:54;;;;;;;;;5.25;4.50;;;;;23.67;47.89;101149.69;5060669;27;45861;-59
2022/08/24 05:57:22;;;;;;;;;7.25;6.50;;;;;23.67;48.10;101149.69;5068910;28;45293;-59
2022/08/24 05:59:48;;;;;;;;;7.25;6.00;;;;;23.66;48.02;101145.28;5066616;28;45410;-59
2022/08/24 06:02:13;;;;;;;;;3.00;2.25;;;;;23.66;48.33;101152.47;5071816;28;45362;-59
2022/08/24 06:04:39;;;;;;;;;6.50;6.00;;;;;23.68;48.26;101150.56;5067493;28;45359;-59
2022/08/24 06:07:08;;;;;;;;;5.75;5.75;;;;;23.67;47.97;101149.69;5067831;27;45205;-59
2022/08/24 06:09:33;;;;;;;;;7.50;6.75;;;;;23.68;48.03;101148.75;5081142;27;45459;-59
2022/08/24 06:11:59;;;;;;;;;7.00;6.00;;;;;23.67;48.15;101152.38;5072048;27;45311;-59
2022/08/24 06:14:24;;;;;;;;;6.00;5.00;;;;;23.66;47.97;101158.69;5071849;28;45670;-59
2022/08/24 06:16:51;;;;;;;;;6.00;6.00;;;;;23.64;48.08;101157.94;5078431;28;45446;-59
2022/08/24 06:19:18;;;;;;;;;7.75;5.00;;;;;23.59;48.47;101151.16;5075446;28;45314;-59
2022/08/24 06:21:47;;;;;;;;;5.50;5.50;;;;;23.59;48.45;101154.69;5067282;27;45670;-59
2022/08/24 06:24:14;;;;;;;;;3.75;3.75;;;;;23.60;48.37;101158.25;5068924;27;46337;-60
2022/08/24 06:29:25;;;;;;;;;4.50;4.50;;;;;23.61;48.30;101155.44;5062560;28;45255;-59
2022/08/24 06:31:51;;;;;;;;;8.00;7.00;;;;;23.63;48.14;101161.56;5072535;27;45517;-60
2022/08/24 06:34:18;;;;;;;;;5.25;4.75;;;;;23.62;48.45;101157.19;5073593;28;48637;-60
2022/08/24 06:36:43;;;;;;;;;4.75;4.00;;;;;23.65;48.34;101158.81;5070434;28;45285;-61
2022/08/24 06:39:10;;;;;;;;;7.00;5.50;;;;;23.66;48.21;101157.81;5073939;28;45248;-61
2022/08/24 06:41:36;;;;;;;;;10.00;9.00;;;;;23.67;48.31;101160.44;5080783;28;45563;-60
2022/08/24 06:44:02;;;;;;;;;19.25;17.25;;;;;23.67;48.52;101155.06;5072924;27;46450;-59
2022/08/24 06:46:28;;;;;;;;;8.00;6.00;;;;;23.69;48.26;101157.66;5060220;28;45311;-59
2022/08/24 06:48:54;;;;;;;;;6.00;6.00;;;;;23.71;48.31;101158.44;5060575;28;45272;-59
2022/08/24 06:51:24;;;;;;;;;6.25;3.50;;;;;23.74;48.28;101154.69;5060442;28;45293;-60
2022/08/24 06:53:50;;;;;;;;;8.00;5.00;;;;;23.73;48.06;101147.59;5059808;28;46625;-60
2022/08/24 06:56:16;;;;;;;;;5.75;5.00;;;;;23.76;48.21;101158.09;5059892;28;45462;-60
2022/08/24 06:58:42;;;;;;;;;6.00;5.25;;;;;23.79;48.61;101149.88;5060336;28;45478;-60
2022/08/24 07:01:10;;;;;;;;;6.00;5.50;;;;;23.81;48.25;101148.81;5080506;27;45487;-60
2022/08/24 07:03:36;;;;;;;;;5.25;5.00;;;;;23.84;48.46;101150.44;5058661;28;47003;-59
2022/08/24 07:06:03;;;;;;;;;5.25;5.25;;;;;23.85;48.32;101157.53;5060104;28;45640;-60
2022/08/24 07:08:29;;;;;;;;;8.25;6.00;;;;;23.89;48.28;101150.16;5060452;28;45268;-60
2022/08/24 07:10:54;;;;;;;;;6.75;4.50;;;;;23.88;48.39;101146.59;5058734;28;45267;-60
2022/08/24 07:13:20;;;;;;;;;5.50;5.00;;;;;23.92;48.25;101156.19;5060430;28;45395;-60
2022/08/24 07:15:46;;;;;;;;;4.50;4.00;;;;;23.95;48.45;101164.06;5059958;28;45300;-60
2022/08/24 07:18:15;;;;;;;;;8.25;7.00;;;;;23.98;48.28;101158.50;5060491;28;45320;-60
2022/08/24 07:20:41;;;;;;;;;5.00;5.00;;;;;24.01;48.28;101155.63;5060070;28;45419;-60
2022/08/24 07:23:07;;;;;;;;;7.00;5.25;;;;;24.04;48.19;101162.63;5060031;28;45440;-60
2022/08/24 07:25:33;;;;;;;;;5.00;5.00;;;;;24.07;48.35;101161.56;5059979;28;45403;-60
2022/08/24 07:27:59;;;;;;;;;5.00;3.25;;;;;24.10;48.17;101164.03;5060312;28;45240;-60
2022/08/24 07:30:28;;;;;;;;;6.00;5.00;;;;;24.12;48.06;101162.97;5059956;28;45382;-60
2022/08/24 07:32:55;;;;;;;;;6.00;6.00;;;;;24.17;48.40;101162.69;5059607;28;45756;-60
2022/08/24 07:35:22;;;;;;;;;6.00;5.50;;;;;24.20;48.12;101172.34;5077685;27;45446;-60
2022/08/24 07:37:48;;;;;;;;;5.00;5.00;;;;;24.22;48.18;101165.91;5059957;28;45359;-60
2022/08/24 07:40:13;;;;;;;;;9.00;4.00;;;;;24.26;48.06;101170.13;5064769;27;45246;-60
2022/08/24 07:42:39;;;;;;;;;5.25;3.50;;;;;24.31;48.13;101175.19;5072352;27;45258;-59
2022/08/24 07:45:05;;;;;;;;;5.25;3.00;;;;;24.33;47.85;101174.13;5081407;27;45249;-60
2022/08/24 07:47:30;;;;;;;;;6.25;5.00;;;;;24.38;48.16;101173.84;5065513;27;45324;-60
2022/08/24 07:49:56;;;;;;;;;5.00;4.50;;;;;24.43;47.82;101174.41;5065858;27;45504;-60
2022/08/24 07:52:21;;;;;;;;;8.00;5.75;;;;;24.46;48.17;101176.88;5081967;27;48144;-60
2022/08/24 07:54:46;;;;;;;;;7.75;5.25;;;;;24.50;48.06;101174.84;5067363;27;45348;-60
2022/08/24 07:57:12;;;;;;;;;4.75;4.00;;;;;24.50;47.83;101169.47;5079925;28;45422;-60
2022/08/24 07:59:37;;;;;;;;;3.75;3.75;;;;;24.60;47.82;101177.78;5065611;28;45437;-60
2022/08/24 08:02:04;;;;;;;;;5.25;5.00;;;;;24.66;47.62;101180.09;5078996;28;46150;-59
2022/08/24 08:04:30;;;;;;;;;4.75;3.00;;;;;24.71;48.05;101182.50;5079906;28;45467;-59
2022/08/24 08:06:56;;;;;;;;;5.50;4.00;;;;;24.75;47.68;101182.16;5079952;28;45251;-60
2022/08/24 08:09:21;;;;;;;;;4.75;4.75;;;;;24.80;47.93;101188.13;5079740;28;45266;-60
2022/08/24 08:11:48;;;;;;;;;7.00;5.00;;;;;24.87;47.53;101193.91;5079730;28;45289;-60
2022/08/24 08:14:13;;;;;;;;;5.50;4.25;;;;;24.91;47.78;101189.22;5079877;28;45307;-59
2022/08/24 08:16:39;;;;;;;;;2.75;2.75;;;;;24.98;47.43;101195.88;5079475;28;45391;-60
2022/08/24 08:19:05;;;;;;;;;3.00;3.00;;;;;25.02;47.84;101189.34;5079914;28;45389;-60
2022/08/24 08:24:15;;;;;;;;;4.50;2.75;;;;;25.15;47.32;101197.41;5079838;28;45339;-60
2022/08/24 08:26:41;;;;;;;;;3.50;2.25;;;;;25.22;47.84;101193.34;5079829;28;45351;-60
2022/08/24 08:29:09;;;;;;;;;4.50;2.75;;;;;25.28;47.52;101194.72;5079568;28;45486;-60
2022/08/24 08:31:36;;;;;;;;;4.00;4.00;;;;;25.34;47.01;101193.47;5079127;28;46180;-59
2022/08/24 08:34:02;;;;;;;;;2.25;2.25;;;;;25.41;47.03;101198.31;5079486;28;45200;-59
2022/08/24 08:36:28;;;;;;;;;1.75;1.75;;;;;25.48;47.15;101193.38;5079801;28;45224;-60
2022/08/24 08:38:53;;;;;;;;;3.00;3.00;;;;;25.55;46.85;101194.66;5079377;28;45573;-59
2022/08/24 08:41:53;;;;;;;;;3.00;2.00;;;;;25.64;46.75;101196.69;5079562;28;47057;-59
2022/08/24 08:44:43;;;;;;;;;4.50;3.00;;;;;25.74;46.79;101190.69;5070622;28;45306;-59
2022/08/24 08:48:01;;;;;;;;;2.00;2.00;;;;;25.81;46.62;101191.97;5076757;28;45237;-59
2022/08/24 08:51:01;;;;;;;;;3.50;3.25;;;;;25.92;46.51;101189.38;5016079;28;45362;-59
2022/08/24 08:53:56;;;;;;;;;3.75;3.50;;;;;25.99;46.71;101192.47;5018654;28;48184;-59
2022/08/24 08:56:38;;;;;;;;;3.25;2.25;;;;;26.10;46.08;101186.31;5075477;28;45232;-59
2022/08/24 08:59:24;;;;;;;;;3.25;2.75;;;;;26.18;46.26;101193.84;5082695;28;45267;-59
2022/08/24 09:02:20;;;;;;;;;1.25;1.25;;;;;26.28;45.85;101192.19;5082239;28;45481;-59
2022/08/24 09:05:09;;;;;;;;;3.00;3.00;;;;;26.38;45.80;101189.69;5082537;28;45357;-59
2022/08/24 09:07:51;;;;;;;;;3.00;3.00;;;;;26.48;46.29;101188.03;5082428;28;45303;-59
2022/08/24 09:10:30;;;;;;;;;2.00;2.00;;;;;26.56;45.47;101191.00;5082756;28;45229;-59
2022/08/24 09:13:23;;;;;;;;;2.00;2.00;;;;;26.67;45.85;101198.28;5081079;28;45355;-59
2022/08/24 09:16:10;;;;;;;;;1.00;1.00;;;;;26.78;45.39;101197.50;5082036;27;47072;-59
2022/08/24 09:19:00;;;;;;;;;2.00;2.00;;;;;26.88;45.37;101184.16;5082578;28;45436;-59
2022/08/24 09:21:31;;;;;;;;;2.25;1.50;;;;;26.99;45.44;101192.28;5061725;28;45281;-59
2022/08/24 09:24:17;;;;;;;;;1.75;1.75;;;;;27.10;44.98;101188.78;5075010;28;45305;-60
2022/08/24 09:27:05;;;;;;;;;1.50;1.00;;;;;27.25;45.26;101192.97;5082056;28;45631;-59
2022/08/24 09:29:43;;;;;;;;;1.50;1.50;;;;;27.38;44.67;101187.50;5082008;28;45235;-59
2022/08/24 09:32:26;;;;;;;;;2.50;1.50;;;;;27.51;45.00;101191.94;5066939;28;45581;-59
2022/08/24 09:35:02;;;;;;;;;2.00;1.00;;;;;27.65;44.44;101182.75;5082140;28;45356;-59
2022/08/24 09:37:54;;;;;;;;;2.00;2.00;;;;;27.78;44.82;101198.84;5062729;28;47287;-59
2022/08/24 09:40:20;;;;;;;;;1.00;1.00;;;;;27.88;44.50;101192.53;5076479;28;45290;-59
2022/08/24 09:43:18;;;;;;;;;1.00;1.00;;;;;27.99;44.34;101194.38;5082115;28;45405;-59
2022/08/24 09:46:05;;;;;;;;;1.00;1.00;;;;;28.12;44.04;101186.16;5081930;28;45508;-59
2022/08/24 09:48:57;;;;;;;;;1.50;1.50;;;;;28.26;43.89;101187.72;5081709;28;46045;-59
2022/08/24 09:51:47;;;;;;;;;1.75;1.00;;;;;28.41;44.07;101193.72;5072452;28;45218;-59
2022/08/24 09:55:03;;;;;;;;;0.00;0.00;;;;;28.59;43.59;101187.75;5061713;28;45319;-59
2022/08/24 09:57:35;;;;;;;;;1.75;1.00;;;;;28.73;43.14;101184.81;5054493;28;45256;-59
2022/08/24 10:00:23;;;;;;;;;0.50;0.50;;;;;28.88;43.32;101188.06;5061252;28;45908;-60
2022/08/24 10:03:14;;;;;;;;;0.25;0.25;;;;;29.03;43.29;101178.63;5060131;28;45321;-59
2022/08/24 10:05:59;;;;;;;;;1.50;1.00;;;;;29.19;43.03;101182.69;5071172;28;45261;-60
2022/08/24 10:08:34;;;;;;;;;1.75;0.25;;;;;29.34;42.93;101180.53;5081543;28;45254;-60
2022/08/24 10:11:08;;;;;;;;;1.75;1.00;;;;;29.49;42.68;101173.78;5081484;28;46366;-59
2022/08/24 10:13:50;;;;;;;;;0.75;0.75;;;;;29.66;42.41;101172.28;5081452;28;45227;-60
2022/08/24 10:16:29;;;;;;;;;1.00;1.00;;;;;29.82;42.48;101170.91;5081178;28;45319;-60
2022/08/24 10:19:35;;;;;;;;;2.25;1.25;;;;;30.02;42.26;101160.19;5081497;28;45436;-60
2022/08/24 10:22:32;;;;;;;;;1.00;1.00;;;;;30.23;42.25;101168.22;5081334;28;46129;-60
2022/08/24 10:25:28;;;;;;;;;0.00;0.00;;;;;30.41;41.51;101163.78;5081408;28;45358;-60
2022/08/24 10:28:27;;;;;;;;;1.50;0.25;;;;;30.62;42.13;101160.13;5081551;28;45326;-59
2022/08/24 10:30:56;;;;;;;;;1.75;0.75;;;;;30.82;41.74;101152.84;5080769;28;45527;-60
2022/08/24 10:33:44;;;;;;;;;1.00;1.00;;;;;31.06;41.66;101162.38;5081157;28;46196;-60
2022/08/24 10:36:09;;;;;;;;;0.00;0.00;;;;;31.34;42.14;101152.47;5072851;28;45264;-60
2022/08/24 10:41:57;;;;;;;;;0.00;0.00;;;;;31.88;41.16;101149.94;5081157;28;45319;-61
2022/08/24 10:45:13;;;;;;;;;0.50;0.50;;;;;32.08;41.06;101147.97;5071669;28;47251;-60
2022/08/24 10:47:59;;;;;;;;;1.00;1.00;;;;;32.34;40.87;101155.41;5006344;28;45494;-60
2022/08/24 10:50:27;;;;;;;;;0.00;0.00;;;;;32.67;41.04;101155.72;4997477;28;45357;-60
2022/08/24 10:53:11;;;;;;;;;0.75;0.75;;;;;33.12;41.26;101159.31;5036793;28;46115;-60
2022/08/24 10:55:36;;;;;;;;;1.25;1.25;;;;;33.56;41.03;101152.97;5067655;28;46109;-60
2022/08/24 10:58:36;;;;;;;;;0.00;0.00;;;;;34.06;41.08;101153.16;5080795;28;45177;-60
2022/08/24 11:01:25;;;;;;;;;0.00;0.00;;;;;34.59;40.58;101151.03;5080031;27;46288;-62
2022/08/24 11:03:58;;;;;;;;;0.00;0.00;;;;;35.04;40.61;101149.66;5080914;28;45235;-61
2022/08/24 11:06:29;;;;;;;;;1.00;0.00;;;;;35.59;40.16;101141.69;5080623;28;45919;-61
2022/08/24 11:09:06;;;;;;;;;0.75;0.75;;;;;36.18;40.40;101143.13;5080617;28;45259;-60
2022/08/24 11:11:39;;;;;;;;;0.00;0.00;;;;;36.69;39.79;101142.56;5080691;28;45336;-60
2022/08/24 11:14:25;;;;;;;;;0.00;0.00;;;;;37.15;38.82;101147.94;5080604;28;45404;-60
2022/08/24 11:16:52;;;;;;;;;0.00;0.00;;;;;37.46;38.25;101138.72;5080186;28;47298;-61
2022/08/24 11:19:26;;;;;;;;;0.00;0.00;;;;;37.75;37.99;101139.72;5080513;28;45327;-60
2022/08/24 11:21:54;;;;;;;;;0.00;0.00;;;;;38.03;38.06;101133.53;5080656;28;45357;-62
2022/08/24 11:24:19;;;;;;;;;2.75;1.75;;;;;38.36;37.49;101130.31;5080380;28;45403;-62
2022/08/24 11:27:23;;;;;;;;;0.00;0.00;;;;;38.78;37.21;101133.22;5080595;28;45261;-61
2022/08/24 11:29:48;;;;;;;;;0.00;0.00;;;;;39.18;37.00;101130.72;5078424;28;45220;-61
2022/08/24 11:32:31;;;;;;;;;0.75;0.75;;;;;39.53;36.60;101122.47;5080124;28;45485;-61
2022/08/24 11:35:02;;;;;;;;;0.00;0.00;;;;;39.84;36.33;101118.41;5080493;28;45307;-62
2022/08/24 11:37:38;;;;;;;;;0.00;0.00;;;;;40.12;35.89;101115.50;5079973;28;46312;-62
2022/08/24 11:40:06;;;;;;;;;0.00;0.00;;;;;40.35;35.15;101119.78;5080303;28;45377;-62
2022/08/24 11:43:01;;;;;;;;;0.00;0.00;;;;;40.60;35.35;101113.69;5078904;28;45330;-63
2022/08/24 11:45:52;;;;;;;;;1.75;0.00;;;;;40.83;34.84;101106.88;5080156;28;45480;-62
2022/08/24 11:48:49;;;;;;;;;0.00;0.00;;;;;41.12;34.47;101107.47;5078760;28;45373;-62
2022/08/24 11:51:56;;;;;;;;;0.00;0.00;;;;;41.42;33.98;101105.91;5070231;28;45316;-62
2022/08/24 11:54:23;;;;;;;;;1.25;1.25;;;;;41.68;33.60;101100.50;4997782;28;45452;-62